Time;durP1;ratioP1;P1;durP2;ratioP2;P2;SDS_P1;SDS_P2;PMS_P1;PMS_P2;Temp;Humidity;BMP_temperature;BMP_pressure;BME280_temperature;BME280_humidity;BME280_pressure;Samples;Min_cycle;Max_cycle;Signal;HPM_P1;HPM_P2
2022/06/15 00:01:47;;;;;;;3.60;2.72;;;;;;;13.59;100.00;102139.59;4892335;29;20056;-80
2022/06/15 00:04:17;;;;;;;5.90;3.35;;;;;;;13.58;100.00;102143.09;4877614;29;20044;-80
2022/06/15 00:06:46;;;;;;;8.57;3.20;;;;;;;13.58;100.00;102142.22;4908146;29;20044;-80
2022/06/15 00:09:17;;;;;;;5.95;3.10;;;;;;;13.59;100.00;102147.53;4909892;29;20410;-81
2022/06/15 00:11:45;;;;;;;8.48;3.72;;;;;;;13.61;100.00;102142.22;4884176;29;20270;-79
2022/06/15 00:14:25;;;;;;;5.47;2.88;;;;;;;13.60;100.00;102141.34;4908236;29;20506;-79
2022/06/15 00:16:54;;;;;;;4.82;2.53;;;;;;;13.60;100.00;102140.47;4909588;29;20711;-79
2022/06/15 00:19:23;;;;;;;6.97;3.15;;;;;;;13.59;100.00;102134.28;4895675;29;20052;-79
2022/06/15 00:21:51;;;;;;;7.18;3.00;;;;;;;13.59;100.00;102139.59;4874377;29;20045;-79
2022/06/15 00:24:20;;;;;;;8.23;3.13;;;;;;;13.57;100.00;102136.03;4910004;29;20040;-79
2022/06/15 00:26:48;;;;;;;7.45;3.20;;;;;;;13.56;100.00;102128.94;4892297;29;20058;-79
2022/06/15 00:29:16;;;;;;;7.10;3.55;;;;;;;13.54;100.00;102128.03;4895173;29;20044;-79
2022/06/15 00:31:45;;;;;;;4.38;3.47;;;;;;;13.53;100.00;102128.91;4900368;29;20339;-79
2022/06/15 00:34:14;;;;;;;3.40;2.92;;;;;;;13.52;100.00;102131.56;4893697;29;20549;-78
2022/06/15 00:36:42;;;;;;;6.50;3.40;;;;;;;13.48;100.00;102133.28;4859686;29;20341;-78
2022/06/15 00:39:10;;;;;;;5.18;3.42;;;;;;;13.47;100.00;102131.50;4895441;29;20051;-78
2022/06/15 00:41:43;;;;;;;6.65;3.40;;;;;;;13.45;100.00;102135.88;4891410;29;20249;-78
2022/06/15 00:44:21;;;;;;;7.78;3.30;;;;;;;13.42;100.00;102141.13;4894055;29;20544;-78
2022/06/15 00:47:02;;;;;;;3.95;3.20;;;;;;;13.40;100.00;102132.28;4904017;29;20044;-78
2022/06/15 00:49:41;;;;;;;5.40;3.03;;;;;;;13.39;100.00;102136.69;4891485;29;20044;-80
2022/06/15 00:52:19;;;;;;;5.77;3.23;;;;;;;13.38;100.00;102127.00;4849627;29;20068;-80
2022/06/15 00:54:50;;;;;;;5.30;3.33;;;;;;;13.36;100.00;102128.69;4892061;29;20044;-78
2022/06/15 00:57:20;;;;;;;8.40;3.85;;;;;;;13.33;100.00;102125.16;4909029;29;20044;-81
2022/06/15 00:59:56;;;;;;;3.63;3.08;;;;;;;13.27;100.00;102121.53;4891258;29;20262;-79
2022/06/15 01:02:26;;;;;;;7.75;3.80;;;;;;;13.23;100.00;102121.44;4899403;29;20518;-80
2022/06/15 01:05:04;;;;;;;5.22;3.17;;;;;;;13.19;100.00;102122.28;4891179;29;20051;-80
2022/06/15 01:07:48;;;;;;;4.18;2.95;;;;;;;13.15;100.00;102124.00;4875473;29;20067;-81
2022/06/15 01:10:17;;;;;;;7.63;3.45;;;;;;;13.13;100.00;102122.22;4909963;29;20037;-80
2022/06/15 01:12:58;;;;;;;4.65;3.35;;;;;;;13.09;100.00;102128.34;4890756;29;20063;-80
2022/06/15 01:15:59;;;;;;;7.38;3.15;;;;;;;13.05;100.00;102125.63;4898914;29;20060;-80
2022/06/15 01:18:54;;;;;;;9.07;3.78;;;;;;;12.99;100.00;102119.41;4897339;29;20059;-80
2022/06/15 01:21:31;;;;;;;12.25;3.72;;;;;;;12.94;100.00;102113.16;4924041;29;20055;-80
2022/06/15 01:24:52;;;;;;;4.97;3.30;;;;;;;12.92;100.00;102122.81;4876250;29;20048;-79
2022/06/15 01:27:51;;;;;;;6.43;3.53;;;;;;;12.86;100.00;102120.97;4865185;29;20049;-80
2022/06/15 01:30:38;;;;;;;4.50;3.58;;;;;;;12.81;100.00;102114.72;4908995;29;20059;-80
2022/06/15 01:33:06;;;;;;;12.40;3.47;;;;;;;12.77;100.00;102112.91;4886260;29;20047;-79
2022/06/15 01:36:03;;;;;;;7.55;3.58;;;;;;;12.72;100.00;102115.50;4905180;29;20044;-80
2022/06/15 01:38:53;;;;;;;6.38;3.53;;;;;;;12.68;100.00;102109.28;4876488;29;20032;-79
2022/06/15 01:41:34;;;;;;;5.40;3.33;;;;;;;12.65;100.00;102113.63;4907696;29;20039;-79
2022/06/15 01:44:18;;;;;;;7.60;3.97;;;;;;;12.61;100.00;102107.41;4908893;29;20066;-79
2022/06/15 01:46:47;;;;;;;5.20;3.72;;;;;;;12.59;100.00;102108.22;4905221;29;20044;-80
2022/06/15 01:49:22;;;;;;;7.88;3.38;;;;;;;12.57;100.00;102121.44;4884839;29;20071;-79
2022/06/15 01:51:52;;;;;;;3.85;3.50;;;;;;;12.56;100.00;102108.19;4908059;29;20151;-79
2022/06/15 01:54:33;;;;;;;6.93;3.60;;;;;;;12.53;100.00;102098.44;4874002;29;20048;-80
2022/06/15 01:57:08;;;;;;;6.88;3.70;;;;;;;12.50;100.00;102098.41;4925344;29;20044;-79
2022/06/15 01:59:58;;;;;;;7.32;3.33;;;;;;;12.47;100.00;102096.59;4905117;29;20036;-79
2022/06/15 02:02:45;;;;;;;4.97;3.50;;;;;;;12.45;100.00;102092.16;4901448;29;20048;-80
2022/06/15 02:05:37;;;;;;;7.18;3.63;;;;;;;12.42;100.00;102095.66;4925552;29;20059;-79
2022/06/15 02:08:32;;;;;;;5.68;3.60;;;;;;;12.39;100.00;102098.25;4911572;29;20048;-79
2022/06/15 02:11:18;;;;;;;6.93;3.40;;;;;;;12.37;100.00;102088.53;4907840;29;20052;-79
2022/06/15 02:14:19;;;;;;;8.43;3.70;;;;;;;12.35;100.00;102093.78;4889185;29;20048;-79
2022/06/15 02:16:55;;;;;;;6.40;3.92;;;;;;;12.34;100.00;102102.56;4906518;29;20256;-79
2022/06/15 02:19:33;;;;;;;7.50;4.10;;;;;;;12.31;100.00;102091.06;4893127;29;20040;-80
2022/06/15 02:22:06;;;;;;;6.85;3.70;;;;;;;12.32;100.00;102091.06;4891913;29;20486;-79
2022/06/15 02:24:36;;;;;;;6.60;3.65;;;;;;;12.31;100.00;102086.66;4873374;29;20055;-80
2022/06/15 02:27:07;;;;;;;;;;;;;;;12.32;100.00;102091.06;4912341;29;20048;-80
2022/06/15 02:29:38;;;;;;;5.00;3.63;;;;;;;12.29;100.00;102091.91;4919928;29;20053;-80
2022/06/15 02:32:07;;;;;;;;;;;;;;;12.28;100.00;102092.78;4901119;29;20052;-79
2022/06/15 02:34:37;;;;;;;4.00;3.37;;;;;;;12.26;100.00;102086.56;4857669;29;19924;-79
2022/06/15 02:37:09;;;;;;;6.88;3.40;;;;;;;12.22;100.00;102082.13;4906597;29;20052;-79
2022/06/15 02:39:38;;;;;;;7.20;3.58;;;;;;;12.22;100.00;102083.88;4885725;29;20053;-79
2022/06/15 02:42:44;;;;;;;7.95;3.95;;;;;;;12.21;100.00;102084.72;4861280;29;20494;-79
2022/06/15 02:45:26;;;;;;;8.18;4.15;;;;;;;12.19;100.00;102073.25;4857480;29;20056;-79
2022/06/15 02:47:57;;;;;;;6.18;3.95;;;;;;;12.18;100.00;102089.97;4905695;29;20040;-79
2022/06/15 02:50:29;;;;;;;8.65;4.53;;;;;;;12.18;100.00;102082.06;4895483;29;20044;-79
2022/06/15 02:53:06;;;;;;;5.60;4.07;;;;;;;12.21;100.00;102085.63;4895101;29;20050;-79
2022/06/15 02:55:35;;;;;;;8.00;3.85;;;;;;;12.23;100.00;102088.28;4884014;29;20117;-80
2022/06/15 02:58:12;;;;;;;6.32;4.07;;;;;;;12.26;100.00;102078.66;4880275;29;20040;-79
2022/06/15 03:00:47;;;;;;;4.05;3.65;;;;;;;12.29;100.00;102089.28;4904202;29;20075;-79
2022/06/15 03:03:22;;;;;;;7.40;4.55;;;;;;;12.33;100.00;102078.78;4893733;29;20060;-79
2022/06/15 03:05:57;;;;;;;6.95;4.72;;;;;;;12.39;100.00;102081.50;4883089;29;20033;-79
2022/06/15 03:08:26;;;;;;;7.63;4.10;;;;;;;12.42;100.00;102084.16;4890519;29;20048;-80
2022/06/15 03:11:03;;;;;;;5.78;4.43;;;;;;;12.46;100.00;102078.09;4907806;29;20548;-79
2022/06/15 03:13:32;;;;;;;4.93;4.45;;;;;;;12.49;100.00;102075.47;4857099;29;20047;-80
2022/06/15 03:16:03;;;;;;;;;;;;;;;12.53;100.00;102076.41;4892960;29;20067;-79
2022/06/15 03:18:33;;;;;;;8.15;4.18;;;;;;;12.56;100.00;102071.19;4888596;29;19933;-79
2022/06/15 03:21:07;;;;;;;6.30;4.40;;;;;;;12.59;100.00;102069.47;4866042;29;20394;-79
2022/06/15 03:23:37;;;;;;;6.38;4.50;;;;;;;12.63;100.00;102065.13;4899916;29;20055;-79
2022/06/15 03:26:07;;;;;;;4.97;4.03;;;;;;;12.66;100.00;102073.06;4892641;29;20048;-79
2022/06/15 03:28:37;;;;;;;9.30;4.43;;;;;;;12.70;100.00;102069.59;4843965;29;20238;-79
2022/06/15 03:31:11;;;;;;;6.15;4.20;;;;;;;12.71;100.00;102071.38;4891601;29;20070;-79
2022/06/15 03:33:40;;;;;;;7.97;4.15;;;;;;;12.76;100.00;102076.72;4871160;29;20388;-79
2022/06/15 03:36:14;;;;;;;4.70;4.00;;;;;;;12.78;100.00;102075.00;4893465;29;20083;-79
2022/06/15 03:38:44;;;;;;;5.68;4.18;;;;;;;12.81;100.00;102081.22;4866409;29;20270;-79
2022/06/15 03:41:36;;;;;;;6.22;4.18;;;;;;;12.83;100.00;102079.47;4903491;29;20047;-80
2022/06/15 03:44:05;;;;;;;6.93;3.72;;;;;;;12.87;100.00;102080.41;4865601;29;20044;-79
2022/06/15 03:46:35;;;;;;;5.32;3.72;;;;;;;12.90;100.00;102076.94;4902881;29;20059;-80
2022/06/15 03:49:11;;;;;;;3.95;3.63;;;;;;;12.94;100.00;102074.34;4879696;29;20059;-80
2022/06/15 03:51:40;;;;;;;5.30;4.15;;;;;;;12.97;100.00;102073.50;4872507;29;20040;-80
2022/06/15 03:54:08;;;;;;;4.57;3.65;;;;;;;12.99;100.00;102069.13;4869138;29;20398;-79
2022/06/15 03:56:45;;;;;;;7.90;3.40;;;;;;;13.01;100.00;102060.31;4873299;29;20055;-79
2022/06/15 03:59:23;;;;;;;5.63;3.67;;;;;;;13.04;100.00;102065.66;4878327;29;20044;-80
2022/06/15 04:01:56;;;;;;;6.55;3.53;;;;;;;13.07;100.00;102070.09;4891103;29;20044;-79
2022/06/15 04:04:25;;;;;;;4.35;3.90;;;;;;;13.11;100.00;102078.97;4888800;29;20051;-80
2022/06/15 04:06:59;;;;;;;4.57;3.28;;;;;;;13.13;100.00;102071.94;4906435;29;20524;-80
2022/06/15 04:09:30;;;;;;;6.07;3.88;;;;;;;13.16;100.00;102071.97;4896077;29;20036;-80
2022/06/15 04:12:09;;;;;;;4.40;3.15;;;;;;;13.19;100.00;102069.34;4892722;29;20040;-79
2022/06/15 04:14:42;;;;;;;3.72;2.97;;;;;;;13.21;100.00;102070.25;4842763;29;20147;-80
2022/06/15 04:17:18;;;;;;;7.72;3.63;;;;;;;13.24;100.00;102067.66;4892235;29;20051;-80
2022/06/15 04:22:48;;;;;;;5.70;3.85;;;;;;;13.31;100.00;102060.69;4875390;29;20313;-79
2022/06/15 04:25:16;;;;;;;6.82;3.80;;;;;;;13.35;100.00;102070.47;4884646;29;20060;-80
2022/06/15 04:27:46;;;;;;;8.77;4.15;;;;;;;13.34;100.00;102069.56;4904620;29;20158;-78
2022/06/15 04:30:24;;;;;;;6.63;4.40;;;;;;;13.35;100.00;102066.06;4862189;29;20049;-78
2022/06/15 04:32:55;;;;;;;8.85;4.72;;;;;;;13.35;100.00;102071.34;4920606;29;20036;-81
2022/06/15 04:35:31;;;;;;;8.52;5.43;;;;;;;13.38;100.00;102066.09;4861649;29;20040;-80
2022/06/15 04:38:03;;;;;;;13.02;8.18;;;;;;;13.41;100.00;102070.53;4895437;29;20044;-79
2022/06/15 04:40:38;;;;;;;7.47;5.45;;;;;;;13.43;100.00;102064.38;4898334;29;20614;-79
2022/06/15 04:43:10;;;;;;;8.82;4.55;;;;;;;13.48;100.00;102067.09;4880463;29;20044;-79
2022/06/15 04:45:38;;;;;;;7.40;4.00;;;;;;;13.51;100.00;102066.22;4878245;29;20273;-79
2022/06/15 04:48:17;;;;;;;4.00;3.13;;;;;;;13.53;100.00;102070.63;4896135;29;20051;-80
2022/06/15 04:50:46;;;;;;;8.60;3.65;;;;;;;13.60;100.00;102076.91;4877516;29;20032;-80
2022/06/15 04:53:16;;;;;;;6.90;3.67;;;;;;;13.64;100.00;102084.88;4910302;29;20047;-80
2022/06/15 04:55:50;;;;;;;7.63;4.65;;;;;;;13.68;100.00;102090.22;4875833;29;20075;-80
2022/06/15 04:58:19;;;;;;;6.97;4.32;;;;;;;13.71;100.00;102098.22;4879837;29;20059;-80
2022/06/15 05:00:50;;;;;;;7.82;4.65;;;;;;;13.72;100.00;102092.91;4850142;29;20160;-80
2022/06/15 05:03:20;;;;;;;10.33;5.10;;;;;;;13.76;100.00;102093.81;4895014;29;20067;-79
2022/06/15 05:05:57;;;;;;;8.90;5.25;;;;;;;13.79;100.00;102099.16;4862610;29;20809;-79
2022/06/15 05:08:28;;;;;;;16.25;6.03;;;;;;;13.83;100.00;102099.19;4893218;29;20060;-79
2022/06/15 05:11:00;;;;;;;8.15;5.72;;;;;;;13.86;100.00;102103.66;4911213;29;20063;-80
2022/06/15 05:13:31;;;;;;;6.47;4.57;;;;;;;13.89;100.00;102095.72;4884183;29;20044;-81
2022/06/15 05:16:01;;;;;;;6.43;4.40;;;;;;;13.95;100.00;102106.41;4877928;29;20059;-78
2022/06/15 05:18:30;;;;;;;12.70;5.20;;;;;;;14.02;100.00;102102.03;4863592;29;20044;-79
2022/06/15 05:21:04;;;;;;;8.68;4.35;;;;;;;14.09;100.00;102095.91;4895924;29;20051;-78
2022/06/15 05:23:33;;;;;;;5.78;4.88;;;;;;;14.18;100.00;102097.75;4876855;29;20036;-81
2022/06/15 05:26:14;;;;;;;8.63;6.07;;;;;;;14.28;100.00;102093.41;4881255;29;20052;-80
2022/06/15 05:28:45;;;;;;;9.00;5.28;;;;;;;14.34;100.00;102093.47;4868834;29;20282;-78
2022/06/15 05:31:21;;;;;;;9.55;5.18;;;;;;;14.42;100.00;102086.44;4894364;29;20055;-81
2022/06/15 05:33:56;;;;;;;10.77;5.45;;;;;;;14.51;100.00;102090.94;4862377;29;20168;-80
2022/06/15 05:36:28;;;;;;;10.75;4.88;;;;;;;14.61;100.00;102095.44;4909965;29;20048;-80
2022/06/15 05:38:57;;;;;;;9.00;4.53;;;;;;;14.71;100.00;102094.63;4911766;29;20520;-80
2022/06/15 05:41:26;;;;;;;12.55;5.47;;;;;;;14.78;100.00;102106.16;4907500;29;20044;-81
2022/06/15 05:44:04;;;;;;;10.90;4.40;;;;;;;14.86;100.00;102098.22;4885900;29;20040;-79
2022/06/15 05:46:39;;;;;;;14.80;5.28;;;;;;;14.96;100.00;102094.75;4906370;29;20044;-80
2022/06/15 05:49:32;;;;;;;8.52;4.03;;;;;;;15.05;100.00;102099.22;4865464;29;20430;-80
2022/06/15 05:52:02;;;;;;;12.43;3.67;;;;;;;15.13;100.00;102106.34;4863677;29;20052;-80
2022/06/15 05:54:33;;;;;;;7.45;3.83;;;;;;;15.21;100.00;102093.97;4892240;29;20032;-81
2022/06/15 05:57:08;;;;;;;9.95;3.72;;;;;;;15.31;100.00;102099.31;4894011;29;20048;-80
2022/06/15 05:59:45;;;;;;;24.63;4.55;;;;;;;15.40;100.00;102102.00;4886025;29;20433;-80
2022/06/15 06:02:16;;;;;;;25.17;5.83;;;;;;;15.49;100.00;102096.72;4909892;29;20052;-80
2022/06/15 06:04:45;;;;;;;11.80;3.95;;;;;;;15.59;100.00;102095.88;4874386;29;20066;-80
2022/06/15 06:07:20;;;;;;;6.90;2.92;;;;;;;15.71;100.00;102108.31;4909247;29;20067;-80
2022/06/15 06:09:49;;;;;;;5.65;2.80;;;;;;;15.79;100.00;102101.25;4906345;29;20044;-79
2022/06/15 06:12:18;;;;;;;3.10;2.53;;;;;;;15.86;100.00;102104.81;4910026;29;20040;-79
2022/06/15 06:14:47;;;;;;;6.80;3.22;;;;;;;15.89;100.00;102107.47;4900613;29;20071;-79
2022/06/15 06:17:15;;;;;;;5.18;2.88;;;;;;;15.93;100.00;102101.25;4910079;29;20048;-79
2022/06/15 06:19:45;;;;;;;5.65;2.50;;;;;;;16.01;100.00;102095.97;4876030;29;20666;-79
2022/06/15 06:22:13;;;;;;;7.82;2.60;;;;;;;16.20;100.00;102094.22;4909566;29;20036;-79
2022/06/15 06:24:50;;;;;;;4.85;2.80;;;;;;;16.40;100.00;102090.63;4892129;29;20247;-79
2022/06/15 06:27:18;;;;;;;4.60;2.87;;;;;;;16.50;100.00;102090.63;4909631;29;20059;-80
2022/06/15 06:29:50;;;;;;;5.65;2.63;;;;;;;16.61;100.00;102089.72;4897891;29;20596;-79
2022/06/15 06:32:18;;;;;;;8.30;2.83;;;;;;;16.75;100.00;102087.91;4908404;29;20044;-79
2022/06/15 06:34:47;;;;;;;6.13;2.78;;;;;;;16.97;100.00;102091.41;4906836;29;20330;-79
2022/06/15 06:37:15;;;;;;;5.10;2.60;;;;;;;17.09;100.00;102096.69;4881017;29;20048;-79
2022/06/15 06:39:44;;;;;;;5.72;3.00;;;;;;;17.15;100.00;102096.66;4906016;29;20424;-79
2022/06/15 06:42:13;;;;;;;6.03;3.05;;;;;;;17.21;100.00;102094.88;4894373;29;20060;-79
2022/06/15 06:44:44;;;;;;;8.45;2.65;;;;;;;17.22;100.00;102096.63;4868189;29;20169;-79
2022/06/15 06:47:13;;;;;;;4.15;2.67;;;;;;;17.17;100.00;102098.47;4875388;29;20045;-79
2022/06/15 06:49:42;;;;;;;3.88;2.83;;;;;;;17.09;100.00;102104.69;4919907;29;20074;-79
2022/06/15 06:52:11;;;;;;;3.92;2.90;;;;;;;17.00;100.00;102104.72;4830801;29;20541;-79
2022/06/15 06:54:39;;;;;;;5.97;2.67;;;;;;;16.98;100.00;102108.28;4898429;29;20079;-79
2022/06/15 06:57:08;;;;;;;5.28;2.63;;;;;;;16.98;100.00;102111.84;4911836;29;20055;-79
2022/06/15 06:59:36;;;;;;;5.03;2.60;;;;;;;17.02;100.00;102110.03;4881273;29;20430;-79
2022/06/15 07:02:06;;;;;;;4.80;2.70;;;;;;;17.01;100.00;102114.47;4874333;29;20044;-79
2022/06/15 07:04:34;;;;;;;3.20;2.75;;;;;;;17.02;100.00;102120.69;4895041;29;20044;-79
2022/06/15 07:07:03;;;;;;;4.88;2.30;;;;;;;17.07;100.00;102125.13;4893113;29;20433;-80
2022/06/15 07:09:31;;;;;;;4.63;2.60;;;;;;;17.10;100.00;102127.75;4875263;29;20044;-80
2022/06/15 07:12:00;;;;;;;7.70;2.85;;;;;;;17.15;100.00;102130.41;4892984;29;20059;-79
2022/06/15 07:14:29;;;;;;;6.47;2.22;;;;;;;17.18;100.00;102133.03;4886452;29;20055;-79
2022/06/15 07:16:58;;;;;;;8.02;2.72;;;;;;;17.23;100.00;102139.25;4898244;29;20498;-79
2022/06/15 07:19:26;;;;;;;5.13;2.28;;;;;;;17.32;100.00;102135.69;4907601;29;20387;-78
2022/06/15 07:21:55;;;;;;;6.80;2.33;;;;;;;17.39;100.00;102131.19;4892177;29;20254;-81
2022/06/15 07:24:23;;;;;;;3.63;2.38;;;;;;;17.43;100.00;102146.25;4872957;29;20052;-79
2022/06/15 07:26:51;;;;;;;6.00;1.90;;;;;;;17.45;100.00;102141.84;4883875;29;20052;-78
2022/06/15 07:29:22;;;;;;;4.30;1.65;;;;;;;17.48;100.00;102139.16;4906901;29;20040;-81
2022/06/15 07:31:56;;;;;;;9.48;1.95;;;;;;;17.51;100.00;102136.47;4899354;29;20047;-80
2022/06/15 07:34:24;;;;;;;3.17;1.90;;;;;;;17.59;100.00;102144.44;4908453;29;20048;-81
2022/06/15 07:36:53;;;;;;;4.38;2.08;;;;;;;17.69;99.81;102141.72;4908491;29;20155;-80
2022/06/15 07:39:27;;;;;;;8.30;2.03;;;;;;;17.79;98.49;102139.88;4859918;29;20064;-81
2022/06/15 07:42:05;;;;;;;5.53;1.70;;;;;;;18.00;98.17;102146.00;4904355;29;20041;-80
2022/06/15 07:44:36;;;;;;;2.45;1.50;;;;;;;18.23;97.67;102138.69;4904068;29;20048;-80
2022/06/15 07:49:54;;;;;;;8.27;2.22;;;;;;;18.50;96.93;102137.56;4919085;29;20047;-80
2022/06/15 07:52:46;;;;;;;5.00;2.08;;;;;;;18.59;97.65;102146.38;4892036;29;20429;-80
2022/06/15 07:55:31;;;;;;;3.30;1.90;;;;;;;18.64;96.74;102149.91;4873396;29;20523;-80
2022/06/15 07:58:00;;;;;;;6.43;2.42;;;;;;;18.62;96.29;102146.34;4910550;29;20516;-80
2022/06/15 08:00:29;;;;;;;2.83;1.98;;;;;;;18.56;95.56;102149.97;4909827;29;20055;-81
2022/06/15 08:02:58;;;;;;;6.53;2.35;;;;;;;18.59;94.97;102146.38;4883991;29;20036;-81
2022/06/15 08:05:29;;;;;;;9.60;2.25;;;;;;;18.70;95.50;102142.72;4891347;29;20059;-80
2022/06/15 08:08:18;;;;;;;3.90;1.98;;;;;;;18.85;93.81;102148.84;4907660;29;20063;-78
2022/06/15 08:10:48;;;;;;;8.27;2.03;;;;;;;18.92;93.57;102150.50;4875636;29;20518;-78
2022/06/15 08:13:18;;;;;;;2.75;1.85;;;;;;;18.97;92.69;102153.16;4917808;29;20063;-79
2022/06/15 08:15:50;;;;;;;3.08;1.77;;;;;;;18.99;92.29;102154.91;4893142;29;20552;-78
2022/06/15 08:18:25;;;;;;;5.95;2.40;;;;;;;19.04;91.83;102155.75;4885913;29;20060;-79
2022/06/15 08:20:58;;;;;;;3.53;1.77;;;;;;;19.09;91.01;102161.94;4910101;29;20063;-78
2022/06/15 08:23:31;;;;;;;6.13;2.13;;;;;;;19.14;91.14;102155.63;4909071;29;20394;-78
2022/06/15 08:26:04;;;;;;;6.72;1.80;;;;;;;19.09;89.98;102148.56;4886859;29;20051;-78
2022/06/15 08:28:37;;;;;;;8.82;2.17;;;;;;;19.09;89.92;102153.91;4908948;29;20040;-79
2022/06/15 08:31:06;;;;;;;7.68;2.33;;;;;;;19.13;89.36;102153.84;4895855;29;20044;-78
2022/06/15 08:33:35;;;;;;;5.22;1.92;;;;;;;19.18;90.13;102147.56;4899166;29;20532;-78
2022/06/15 08:36:04;;;;;;;4.05;2.10;;;;;;;19.16;88.84;102151.16;4895375;29;20374;-78
2022/06/15 08:38:33;;;;;;;4.03;1.90;;;;;;;19.13;88.86;102154.75;4893599;29;20046;-79
2022/06/15 08:41:10;;;;;;;8.15;1.80;;;;;;;19.11;87.75;102150.31;4880341;29;20051;-78
2022/06/15 08:44:01;;;;;;;7.38;1.80;;;;;;;19.11;87.79;102147.66;4918071;29;20039;-79
2022/06/15 08:46:42;;;;;;;3.13;1.73;;;;;;;19.09;88.31;102145.91;4901926;29;20052;-80
2022/06/15 08:49:10;;;;;;;;;;;;;;;19.10;85.75;102149.44;4899833;29;20051;-80
2022/06/15 08:51:42;;;;;;;3.28;1.58;;;;;;;19.06;86.42;102145.91;4906869;29;19945;-80
2022/06/15 08:54:18;;;;;;;3.90;1.65;;;;;;;19.06;84.84;102145.91;4910581;29;20060;-80
2022/06/15 08:57:08;;;;;;;2.70;1.60;;;;;;;19.06;85.34;102143.25;4867180;29;24640;-80
2022/06/15 08:59:57;;;;;;;3.53;1.48;;;;;;;19.06;85.04;102143.25;4904604;29;20051;-80
2022/06/15 09:02:52;;;;;;;4.47;1.50;;;;;;;19.09;85.81;102143.22;4908476;29;20051;-80
2022/06/15 09:05:46;;;;;;;3.28;1.70;;;;;;;19.07;84.02;102134.34;4897812;29;20036;-80
2022/06/15 09:08:37;;;;;;;8.27;2.00;;;;;;;19.09;86.50;102136.97;4910228;29;20048;-79
2022/06/15 09:11:20;;;;;;;4.18;1.65;;;;;;;19.12;84.01;102142.28;4907184;29;20052;-80
2022/06/15 09:14:21;;;;;;;4.47;2.05;;;;;;;19.14;86.09;102136.94;4899931;29;20582;-80
2022/06/15 09:16:53;;;;;;;6.18;2.45;;;;;;;19.15;87.26;102133.34;4881123;29;20243;-80
2022/06/15 09:19:35;;;;;;;4.90;2.00;;;;;;;19.21;87.52;102136.84;4903708;29;20063;-80
2022/06/15 09:22:17;;;;;;;8.20;1.90;;;;;;;19.25;87.28;102132.34;4886164;29;20063;-80
2022/06/15 09:25:09;;;;;;;6.90;2.35;;;;;;;19.34;88.80;102129.56;4900670;29;20341;-80
2022/06/15 09:27:51;;;;;;;6.13;2.58;;;;;;;19.44;89.72;102133.88;4869324;29;20238;-80
2022/06/15 09:30:24;;;;;;;4.97;2.60;;;;;;;19.46;88.31;102131.19;4920879;29;20043;-80
2022/06/15 09:33:05;;;;;;;4.47;2.38;;;;;;;19.41;87.95;102125.91;4907580;29;20227;-80
2022/06/15 09:35:38;;;;;;;;;;;;;;;19.38;86.81;102135.75;4900154;29;20079;-80
2022/06/15 09:38:10;;;;;;;4.78;2.08;;;;;;;19.36;88.08;102143.78;4889484;29;20296;-80
2022/06/15 09:40:48;;;;;;;6.53;3.15;;;;;;;19.40;89.90;102137.50;4904752;29;20342;-80
2022/06/15 09:43:36;;;;;;;4.53;2.28;;;;;;;19.43;86.01;102129.44;4891604;29;20111;-78
2022/06/15 09:46:22;;;;;;;5.80;2.60;;;;;;;19.37;86.67;102124.16;4918720;29;20060;-80
2022/06/15 09:48:59;;;;;;;7.93;2.70;;;;;;;19.38;87.45;102125.94;4920680;29;20337;-80
2022/06/15 09:51:53;;;;;;;2.53;2.30;;;;;;;19.35;87.08;102120.63;4898159;29;20040;-80
2022/06/15 09:54:49;;;;;;;3.50;2.22;;;;;;;19.39;87.33;102127.69;4919132;29;20048;-80
2022/06/15 09:57:19;;;;;;;8.90;2.83;;;;;;;19.41;87.11;102120.56;4888513;29;20410;-80
2022/06/15 09:59:48;;;;;;;8.27;3.05;;;;;;;19.50;87.05;102124.88;4860862;29;20051;-81
2022/06/15 10:02:27;;;;;;;4.93;2.70;;;;;;;19.51;87.51;102120.41;4893582;29;20521;-80
2022/06/15 10:04:57;;;;;;;4.35;2.30;;;;;;;19.63;88.96;102117.56;4907933;29;20246;-80
2022/06/15 10:07:30;;;;;;;4.85;2.40;;;;;;;19.77;87.06;102122.75;4896748;29;20506;-80
2022/06/15 10:10:21;;;;;;;5.10;2.67;;;;;;;19.89;84.56;102111.00;4909998;29;20052;-80
2022/06/15 10:13:14;;;;;;;11.73;2.50;;;;;;;19.95;81.39;102118.91;4891077;29;20322;-79
2022/06/15 10:15:43;;;;;;;10.63;2.78;;;;;;;19.98;83.59;102117.09;4876269;29;20048;-79
2022/06/15 10:18:20;;;;;;;4.75;2.63;;;;;;;20.00;83.25;102111.69;4918204;29;20059;-80
2022/06/15 10:21:03;;;;;;;6.05;2.35;;;;;;;20.04;78.04;102113.44;4917100;29;20048;-80
2022/06/15 10:23:50;;;;;;;5.93;2.42;;;;;;;20.09;80.17;102113.34;4897592;29;20052;-80
2022/06/15 10:26:43;;;;;;;4.55;2.13;;;;;;;20.16;81.10;102107.84;4910414;29;20056;-80
2022/06/15 10:29:14;;;;;;;4.10;1.90;;;;;;;20.24;77.32;102103.28;4908202;29;20055;-80
2022/06/15 10:31:55;;;;;;;5.88;2.55;;;;;;;20.28;79.64;102096.06;4866988;29;20556;-80
2022/06/15 10:34:47;;;;;;;5.22;2.30;;;;;;;20.39;77.39;102098.53;4919222;29;20528;-80
2022/06/15 10:37:44;;;;;;;5.60;2.28;;;;;;;20.49;76.91;102104.63;4875543;29;20564;-80
2022/06/15 10:40:39;;;;;;;7.30;2.30;;;;;;;20.59;77.71;102096.38;4902394;29;20064;-79
2022/06/15 10:43:13;;;;;;;6.00;2.30;;;;;;;20.73;74.86;102090.78;4901988;29;20051;-80
2022/06/15 10:46:04;;;;;;;3.55;2.13;;;;;;;20.87;76.13;102098.56;4890503;29;20044;-79
2022/06/15 10:48:45;;;;;;;2.70;1.88;;;;;;;20.98;75.15;102101.94;4883501;29;20529;-82
2022/06/15 10:51:36;;;;;;;4.68;1.80;;;;;;;21.09;75.09;102106.16;4901825;29;20351;-79
2022/06/15 11:02:06;;;;;;;2.85;1.80;;;;;;;21.13;66.29;102097.16;4878363;29;20067;-79
2022/06/15 11:03:21;;;;;;;4.47;1.98;;;;;;;20.86;70.69;102099.47;4907767;29;20048;-80
2022/06/15 11:05:55;;;;;;;5.60;2.35;;;;;;;20.94;71.04;102105.56;4895550;29;20255;-79
2022/06/15 11:08:29;;;;;;;3.95;1.95;;;;;;;21.03;71.44;102104.50;4872723;29;20056;-82
2022/06/15 11:11:16;;;;;;;4.75;2.10;;;;;;;21.13;70.46;102107.88;4890053;29;20518;-82
2022/06/15 11:14:03;;;;;;;5.30;1.70;;;;;;;21.21;69.09;102097.88;4905863;29;20052;-79
2022/06/15 11:19:26;;;;;;;2.58;1.67;;;;;;;21.01;66.67;102085.75;4872774;29;20048;-79
2022/06/15 11:22:05;;;;;;;3.53;2.03;;;;;;;20.99;66.81;102090.28;4893186;29;20047;-79
2022/06/15 11:24:47;;;;;;;2.65;1.80;;;;;;;20.98;63.94;102088.53;4881128;29;20537;-82
2022/06/15 11:27:37;;;;;;;2.83;1.63;;;;;;;20.97;66.92;102080.50;4909704;29;20064;-81
2022/06/15 11:30:20;;;;;;;2.25;1.70;;;;;;;21.08;66.58;102082.94;4908833;29;20040;-81
2022/06/15 11:33:05;;;;;;;3.40;2.13;;;;;;;21.22;65.04;102080.88;4906883;29;20063;-81
2022/06/15 11:35:39;;;;;;;3.30;1.90;;;;;;;21.30;62.72;102073.53;4871928;29;20036;-81
2022/06/15 11:38:37;;;;;;;4.15;2.20;;;;;;;21.27;62.45;102083.47;4901706;29;20040;-81
2022/06/15 11:41:27;;;;;;;4.57;1.88;;;;;;;21.32;58.75;102084.22;4894748;29;20493;-80
2022/06/15 11:43:57;;;;;;;6.07;1.88;;;;;;;21.30;62.02;102084.25;4887064;29;20063;-80
2022/06/15 11:46:33;;;;;;;5.18;2.08;;;;;;;21.35;61.16;102077.00;4913418;29;20520;-80
2022/06/15 11:49:25;;;;;;;2.53;1.55;;;;;;;21.30;60.73;102089.63;4914294;29;20052;-80
2022/06/15 11:52:00;;;;;;;2.67;1.58;;;;;;;21.30;61.22;102086.06;4908568;29;20036;-80
2022/06/15 11:54:47;;;;;;;4.13;1.80;;;;;;;21.32;60.19;102086.91;4919531;29;20040;-80
2022/06/15 11:57:41;;;;;;;2.65;1.50;;;;;;;21.31;58.68;102086.03;4887686;29;20528;-81
2022/06/15 12:00:34;;;;;;;6.18;1.85;;;;;;;21.32;57.40;102089.59;4898543;29;20051;-80
2022/06/15 12:03:41;;;;;;;4.20;1.75;;;;;;;21.21;56.72;102095.19;4897904;29;20061;-80
2022/06/15 12:06:25;;;;;;;5.10;1.95;;;;;;;21.19;57.59;102092.56;4879078;29;20048;-80
2022/06/15 12:09:21;;;;;;;4.85;2.10;;;;;;;21.25;58.64;102087.94;4906466;29;20705;-81
2022/06/15 12:14:57;;;;;;;3.88;1.95;;;;;;;21.47;60.81;102088.41;4901599;29;20421;-80
2022/06/15 12:17:36;;;;;;;2.90;1.67;;;;;;;21.59;57.26;102093.50;4912416;29;20055;-81
2022/06/15 12:20:20;;;;;;;3.70;1.70;;;;;;;21.56;56.98;102090.88;4915113;29;20055;-81
2022/06/15 12:23:14;;;;;;;3.92;1.58;;;;;;;21.53;57.17;102091.84;4881615;29;20067;-81